createdAt,value
2019-02-22T00:01:20.447Z,49.30
2019-02-22T00:03:49.217Z,51.30
2019-02-22T00:06:18.299Z,51.67
2019-02-22T00:08:47.063Z,48.80
2019-02-22T00:11:15.769Z,52.33
2019-02-22T00:13:44.415Z,50.60
2019-02-22T00:16:13.158Z,48.00
2019-02-22T00:18:42.146Z,49.30
2019-02-22T00:21:10.775Z,51.40
2019-02-22T00:23:39.477Z,50.70
2019-02-22T00:26:08.201Z,48.60
2019-02-22T00:28:36.929Z,52.07
2019-02-22T00:31:05.781Z,53.17
2019-02-22T00:33:34.337Z,47.37
2019-02-22T00:36:02.965Z,46.67
2019-02-22T00:38:31.800Z,42.70
2019-02-22T00:41:00.425Z,41.00
2019-02-22T00:43:29.141Z,39.40
2019-02-22T00:45:57.853Z,37.57
2019-02-22T00:48:26.577Z,36.47
2019-02-22T00:50:55.578Z,41.13
2019-02-22T00:53:24.244Z,42.23
2019-02-22T00:55:58.953Z,38.90
2019-02-22T00:58:23.317Z,32.77
2019-02-22T01:00:52.753Z,31.60
2019-02-22T01:03:21.395Z,29.93
2019-02-22T01:05:50.338Z,32.63
2019-02-22T01:08:19.289Z,26.70
2019-02-22T01:10:47.920Z,28.50
2019-02-22T01:13:19.452Z,29.07
2019-02-22T01:15:48.066Z,29.47
2019-02-22T01:18:16.624Z,30.97
2019-02-22T01:20:54.037Z,25.27
2019-02-22T01:23:15.651Z,24.87
2019-02-22T01:25:44.224Z,27.20
2019-02-22T01:28:12.934Z,23.93
2019-02-22T01:30:41.861Z,25.03
2019-02-22T01:33:10.508Z,22.60
2019-02-22T01:35:40.670Z,22.50
2019-02-22T01:38:09.423Z,21.10
2019-02-22T01:40:43.817Z,20.83
2019-02-22T01:43:10.740Z,20.60
2019-02-22T01:45:39.438Z,18.30
2019-02-22T01:48:08.148Z,18.57
2019-02-22T01:50:36.774Z,17.97
2019-02-22T01:53:05.461Z,20.67
2019-02-22T01:55:34.363Z,18.03
2019-02-22T01:58:03.386Z,18.43
2019-02-22T02:00:32.335Z,15.93
2019-02-22T02:03:00.981Z,18.33
2019-02-22T02:05:29.542Z,16.30
2019-02-22T02:07:58.282Z,15.47
2019-02-22T02:10:26.927Z,17.37
2019-02-22T02:12:55.562Z,15.07
2019-02-22T02:15:24.570Z,15.03
2019-02-22T02:17:53.212Z,15.23
2019-02-22T02:20:22.270Z,15.93
2019-02-22T02:22:51.622Z,14.23
2019-02-22T02:25:20.259Z,13.77
2019-02-22T02:27:49.089Z,12.27
2019-02-22T02:30:18.204Z,15.13
2019-02-22T02:32:46.848Z,14.30
2019-02-22T02:35:16.273Z,14.13
2019-02-22T02:37:50.680Z,16.73
2019-02-22T02:40:19.406Z,12.63
2019-02-22T02:42:48.202Z,13.77
2019-02-22T02:45:17.095Z,12.97
2019-02-22T02:47:45.739Z,15.43
2019-02-22T02:50:17.972Z,15.43
2019-02-22T02:52:46.696Z,16.00
2019-02-22T02:55:32.505Z,13.77
2019-02-22T02:58:01.454Z,14.40
2019-02-22T03:00:30.582Z,15.97
2019-02-22T03:03:02.723Z,17.17
2019-02-22T03:05:49.418Z,15.27
2019-02-22T03:08:18.191Z,17.00
2019-02-22T03:10:47.243Z,17.60
2019-02-22T03:13:15.932Z,18.43
2019-02-22T03:15:44.560Z,17.97
2019-02-22T03:18:13.276Z,16.60
2019-02-22T03:20:41.953Z,18.17
2019-02-22T03:23:10.591Z,18.03
2019-02-22T03:25:39.311Z,19.77
2019-02-22T03:28:09.855Z,19.10
2019-02-22T03:30:38.215Z,17.33
2019-02-22T03:33:06.847Z,19.30
2019-02-22T03:35:35.611Z,19.60
2019-02-22T03:38:05.972Z,16.70
2019-02-22T03:40:34.599Z,18.47
2019-02-22T03:43:03.334Z,19.87
2019-02-22T03:45:31.982Z,18.67
2019-02-22T03:48:00.607Z,16.63
2019-02-22T03:50:29.351Z,19.20
2019-02-22T03:53:08.443Z,18.77
2019-02-22T03:55:37.189Z,20.67
2019-02-22T03:58:05.901Z,19.97
2019-02-22T04:00:34.764Z,20.07
2019-02-22T04:03:03.509Z,20.63
2019-02-22T04:05:32.277Z,19.13
2019-02-22T04:08:00.989Z,18.60
2019-02-22T04:10:29.791Z,18.17
2019-02-22T04:12:58.500Z,20.63
2019-02-22T04:15:27.204Z,18.47
2019-02-22T04:17:56.319Z,19.67
2019-02-22T04:20:25.117Z,21.07
2019-02-22T04:22:53.762Z,24.40
2019-02-22T04:25:24.655Z,21.20
2019-02-22T04:27:53.288Z,20.67
2019-02-22T04:30:21.925Z,19.17
2019-02-22T04:32:50.583Z,20.83
2019-02-22T04:35:19.430Z,21.77
2019-02-22T04:37:47.959Z,19.87
2019-02-22T04:40:16.717Z,22.07
2019-02-22T04:42:45.432Z,22.27
2019-02-22T04:45:14.149Z,21.70
2019-02-22T04:47:42.829Z,22.33
2019-02-22T04:50:11.638Z,22.57
2019-02-22T04:52:40.361Z,20.60
2019-02-22T04:55:09.117Z,20.87
2019-02-22T04:57:37.841Z,21.60
2019-02-22T05:00:07.169Z,21.53
2019-02-22T05:02:37.406Z,22.33
2019-02-22T05:05:06.722Z,19.60
2019-02-22T05:07:35.429Z,22.00
2019-02-22T05:10:04.787Z,21.63
2019-02-22T05:12:33.695Z,25.13
2019-02-22T05:15:11.866Z,20.60
2019-02-22T05:17:35.732Z,19.87
2019-02-22T05:20:08.359Z,24.80
2019-02-22T05:22:36.990Z,21.47
2019-02-22T05:25:06.848Z,22.00
2019-02-22T05:27:35.823Z,21.57
2019-02-22T05:30:05.615Z,23.10
2019-02-22T05:32:34.365Z,19.43
2019-02-22T05:35:03.280Z,22.27
2019-02-22T05:37:32.045Z,20.67
2019-02-22T05:40:03.858Z,19.90
2019-02-22T05:42:34.567Z,21.07
2019-02-22T05:45:03.266Z,19.87
2019-02-22T05:47:31.958Z,21.40
2019-02-22T05:50:00.760Z,23.63
2019-02-22T05:52:32.466Z,20.90
2019-02-22T05:55:02.844Z,24.83
2019-02-22T05:57:31.716Z,23.43
2019-02-22T06:00:00.366Z,24.63
2019-02-22T06:02:29.031Z,22.47
2019-02-22T06:04:57.660Z,22.40
2019-02-22T06:07:26.310Z,23.60
2019-02-22T06:09:54.924Z,25.43
2019-02-22T06:12:33.844Z,23.00
2019-02-22T06:14:55.349Z,24.73
2019-02-22T06:17:24.059Z,25.27
2019-02-22T06:19:53.288Z,23.83
2019-02-22T06:22:29.474Z,22.63
2019-02-22T06:24:55.326Z,22.77
2019-02-22T06:27:23.974Z,24.80
2019-02-22T06:29:53.018Z,23.20
2019-02-22T06:32:21.680Z,26.67
2019-02-22T06:34:50.387Z,26.63
2019-02-22T06:37:20.686Z,26.00
2019-02-22T06:39:49.284Z,24.53
2019-02-22T06:42:18.106Z,23.13
2019-02-22T06:44:47.039Z,22.60
2019-02-22T06:47:16.772Z,24.57
2019-02-22T06:49:45.694Z,24.70
2019-02-22T06:52:14.333Z,25.17
2019-02-22T06:54:49.101Z,24.60
2019-02-22T06:57:17.737Z,22.27
2019-02-22T06:59:46.293Z,25.80
2019-02-22T07:02:15.035Z,25.10
2019-02-22T07:04:43.601Z,24.33
2019-02-22T07:07:12.239Z,24.20
2019-02-22T07:09:40.859Z,27.80
2019-02-22T07:12:26.239Z,24.83
2019-02-22T07:14:55.334Z,25.10
2019-02-22T07:17:23.932Z,26.07
2019-02-22T07:19:52.584Z,24.17
2019-02-22T07:22:21.252Z,25.40
2019-02-22T07:24:49.910Z,28.60
2019-02-22T07:27:19.578Z,25.67
2019-02-22T07:29:48.765Z,23.03
2019-02-22T07:32:19.467Z,26.53
2019-02-22T07:34:49.754Z,26.67
2019-02-22T07:37:18.776Z,25.53
2019-02-22T07:39:49.594Z,25.73
2019-02-22T07:42:18.300Z,23.40
2019-02-22T07:44:47.077Z,26.90
2019-02-22T07:47:15.785Z,27.63
2019-02-22T07:49:44.437Z,25.70
2019-02-22T07:52:13.241Z,27.37
2019-02-22T07:54:41.937Z,26.87
2019-02-22T07:57:10.715Z,27.13
2019-02-22T07:59:39.600Z,24.33
2019-02-22T08:02:08.309Z,28.83
2019-02-22T08:04:37.306Z,28.23
2019-02-22T08:07:06.193Z,32.23
2019-02-22T08:09:36.487Z,28.67
2019-02-22T08:12:12.989Z,27.13
2019-02-22T08:14:50.457Z,33.17
2019-02-22T08:17:19.333Z,29.27
2019-02-22T08:19:53.224Z,30.00
2019-02-22T08:22:22.095Z,27.57
2019-02-22T08:24:51.034Z,28.53
2019-02-22T08:27:19.819Z,30.87
2019-02-22T08:29:48.536Z,26.97
2019-02-22T08:32:17.377Z,29.80
2019-02-22T08:34:46.052Z,27.53
2019-02-22T08:37:15.035Z,28.63
2019-02-22T08:39:43.802Z,28.17
2019-02-22T08:42:12.588Z,29.37
2019-02-22T08:44:41.242Z,31.90
2019-02-22T08:47:12.381Z,29.80
2019-02-22T08:49:42.869Z,28.47
2019-02-22T08:52:12.575Z,27.33
2019-02-22T08:54:46.947Z,34.80
2019-02-22T08:57:11.837Z,31.83
2019-02-22T08:59:41.729Z,31.20
2019-02-22T09:02:10.527Z,30.00
2019-02-22T09:04:39.292Z,32.83
2019-02-22T09:07:08.135Z,36.33
2019-02-22T09:09:39.848Z,29.47
2019-02-22T09:12:08.685Z,29.50
2019-02-22T09:14:40.333Z,25.97
2019-02-22T09:17:09.177Z,26.20
2019-02-22T09:19:38.000Z,23.83
2019-02-22T09:22:09.295Z,22.73
2019-02-22T09:24:39.446Z,25.53
2019-02-22T09:27:10.227Z,21.33
2019-02-22T09:29:38.760Z,23.63
2019-02-22T09:32:07.500Z,21.60
2019-02-22T09:34:36.274Z,18.63
2019-02-22T09:37:07.783Z,20.43
2019-02-22T09:39:38.738Z,20.20
2019-02-22T09:42:07.633Z,18.60
2019-02-22T09:44:36.653Z,16.90
2019-02-22T09:47:08.143Z,19.40
2019-02-22T09:49:37.866Z,19.87
2019-02-22T09:52:15.528Z,26.20
2019-02-22T09:54:44.211Z,27.67
2019-02-22T09:57:12.937Z,20.93
2019-02-22T09:59:43.601Z,19.60
2019-02-22T10:02:12.299Z,16.40
2019-02-22T10:04:54.269Z,17.73
2019-02-22T10:07:13.666Z,17.60
2019-02-22T10:09:42.438Z,18.93
2019-02-22T10:12:11.070Z,17.73
2019-02-22T10:14:44.362Z,13.27
2019-02-22T10:17:13.034Z,15.83
2019-02-22T10:19:41.814Z,15.40
2019-02-22T10:22:10.471Z,16.57
2019-02-22T10:24:39.208Z,12.30
2019-02-22T10:27:08.355Z,13.85
2019-02-22T10:29:37.418Z,13.00
2019-02-22T10:32:06.166Z,13.47
2019-02-22T10:34:37.868Z,10.23
2019-02-22T10:37:06.984Z,10.73
2019-02-22T10:39:36.110Z,8.40
2019-02-22T10:42:05.683Z,7.87
2019-02-22T10:44:34.415Z,8.37
2019-02-22T10:47:03.190Z,7.17
2019-02-22T10:49:31.819Z,6.03
2019-02-22T10:52:00.521Z,6.63
2019-02-22T10:54:29.653Z,6.13
2019-02-22T10:57:01.315Z,9.60
2019-02-22T10:59:31.406Z,6.57
2019-02-22T11:02:02.508Z,8.17
2019-02-22T11:04:31.279Z,13.37
2019-02-22T11:07:02.687Z,7.93
2019-02-22T11:09:31.431Z,7.90
2019-02-22T11:12:01.603Z,9.00
2019-02-22T11:14:34.121Z,5.80
2019-02-22T11:17:03.569Z,5.03
2019-02-22T11:19:32.337Z,6.43
2019-02-22T11:22:01.151Z,6.83
2019-02-22T11:24:29.910Z,7.40
2019-02-22T11:26:58.559Z,6.13
2019-02-22T11:29:28.489Z,8.50
2019-02-22T11:31:57.289Z,8.13
2019-02-22T11:34:56.295Z,10.87
2019-02-22T11:36:56.269Z,10.90
2019-02-22T11:39:28.886Z,18.53
2019-02-22T11:41:57.497Z,14.13
2019-02-22T11:44:39.622Z,12.10
2019-02-22T11:47:02.296Z,10.53
2019-02-22T11:49:32.746Z,8.73
2019-02-22T11:52:01.386Z,7.03
2019-02-22T11:54:30.217Z,11.07
2019-02-22T11:56:59.121Z,8.57
2019-02-22T11:59:27.851Z,10.13
2019-02-22T12:01:56.915Z,11.37
2019-02-22T12:04:25.632Z,12.70
2019-02-22T12:06:54.351Z,14.23
2019-02-22T12:09:23.163Z,15.30
2019-02-22T12:11:52.983Z,15.13
2019-02-22T12:14:22.888Z,15.67
2019-02-22T12:16:51.617Z,12.57
2019-02-22T12:19:20.361Z,11.30
2019-02-22T12:21:49.291Z,10.30
2019-02-22T12:24:19.291Z,9.43
2019-02-22T12:26:48.285Z,8.13
2019-02-22T12:29:17.399Z,13.60
2019-02-22T12:31:52.066Z,10.47
2019-02-22T12:34:22.431Z,9.00
2019-02-22T12:36:51.356Z,7.13
2019-02-22T12:39:20.105Z,10.57
2019-02-22T12:41:50.598Z,6.13
2019-02-22T12:44:22.098Z,7.07
2019-02-22T12:46:50.756Z,5.63
2019-02-22T12:53:00.374Z,5.83
2019-02-22T12:55:29.008Z,6.57
2019-02-22T12:57:59.223Z,5.70
2019-02-22T13:00:28.160Z,6.37
2019-02-22T13:03:02.021Z,5.37
2019-02-22T13:05:29.525Z,7.03
2019-02-22T13:07:58.283Z,6.20
2019-02-22T13:10:28.447Z,5.80
2019-02-22T13:13:01.681Z,5.87
2019-02-22T13:15:30.343Z,6.60
2019-02-22T13:17:59.046Z,7.87
2019-02-22T13:20:28.726Z,6.50
2019-02-22T13:22:57.500Z,6.30
2019-02-22T13:25:32.816Z,7.13
2019-02-22T13:28:04.703Z,6.67
2019-02-22T13:30:33.622Z,6.80
2019-02-22T13:33:05.583Z,8.90
2019-02-22T13:35:35.927Z,10.63
2019-02-22T13:38:04.722Z,10.33
2019-02-22T13:40:33.457Z,10.70
2019-02-22T13:43:09.512Z,11.43
2019-02-22T13:45:38.394Z,12.37
2019-02-22T13:48:07.148Z,14.33
2019-02-22T13:50:35.910Z,12.47
2019-02-22T13:53:05.562Z,11.73
2019-02-22T13:55:34.270Z,10.70
2019-02-22T13:58:04.298Z,10.83
2019-02-22T14:00:35.683Z,9.30
2019-02-22T14:03:05.549Z,8.47
2019-02-22T14:05:34.216Z,7.30
2019-02-22T14:08:05.654Z,6.90
2019-02-22T14:10:34.296Z,5.87
2019-02-22T14:13:05.695Z,5.93
2019-02-22T14:15:38.305Z,5.80
2019-02-22T14:18:08.284Z,5.50
2019-02-22T14:20:37.379Z,6.07
2019-02-22T14:23:06.126Z,5.53
2019-02-22T14:25:34.845Z,5.47
2019-02-22T14:28:06.280Z,5.67
2019-02-22T14:30:35.072Z,5.77
2019-02-22T14:33:06.751Z,6.53
2019-02-22T14:35:39.474Z,6.20
2019-02-22T14:38:08.469Z,5.07
2019-02-22T14:40:39.760Z,5.83
2019-02-22T14:43:16.650Z,5.17
2019-02-22T14:45:49.319Z,6.47
2019-02-22T14:48:16.686Z,6.10
2019-02-22T14:50:45.405Z,5.13
2019-02-22T14:53:19.486Z,4.93
2019-02-22T14:55:46.720Z,5.23
2019-02-22T14:58:15.612Z,5.70
2019-02-22T15:00:44.362Z,4.33
2019-02-22T15:03:14.485Z,5.87
2019-02-22T15:05:44.629Z,6.97
2019-02-22T15:08:13.351Z,5.70
2019-02-22T15:10:44.777Z,5.57
2019-02-22T15:13:16.853Z,5.07
2019-02-22T15:15:45.299Z,6.87
2019-02-22T15:18:15.222Z,5.90
2019-02-22T15:20:46.163Z,5.83
2019-02-22T15:23:16.884Z,7.80
2019-02-22T15:25:49.522Z,8.57
2019-02-22T15:28:19.807Z,6.73
2019-02-22T15:30:48.463Z,6.77
2019-02-22T15:33:17.523Z,4.43
2019-02-22T15:35:46.120Z,5.00
2019-02-22T15:38:19.264Z,4.40
2019-02-22T15:40:52.810Z,5.53
2019-02-22T15:43:21.772Z,6.30
2019-02-22T15:45:52.037Z,4.77
2019-02-22T15:48:20.687Z,4.90
2019-02-22T15:50:49.321Z,4.97
2019-02-22T15:53:18.436Z,6.80
2019-02-22T15:55:47.066Z,5.03
2019-02-22T15:58:16.168Z,4.53
2019-02-22T16:00:48.490Z,5.27
2019-02-22T16:03:19.646Z,5.63
2019-02-22T16:05:54.105Z,5.60
2019-02-22T16:08:24.482Z,7.97
2019-02-22T16:10:53.198Z,5.60
2019-02-22T16:13:21.947Z,5.93
2019-02-22T16:15:50.928Z,6.07
2019-02-22T16:18:25.248Z,6.27
2019-02-22T16:20:58.253Z,7.03
2019-02-22T16:23:29.761Z,7.80
2019-02-22T16:26:01.911Z,6.50
2019-02-22T16:28:33.871Z,9.33
2019-02-22T16:31:04.932Z,8.37
2019-02-22T16:33:38.401Z,8.53
2019-02-22T16:36:08.512Z,5.80
2019-02-22T16:38:37.191Z,7.83
2019-02-22T16:41:08.429Z,5.63
2019-02-22T16:43:39.791Z,8.30
2019-02-22T16:46:16.315Z,6.50
2019-02-22T16:48:44.944Z,6.67
2019-02-22T16:51:17.331Z,7.90
2019-02-22T16:53:47.139Z,7.83
2019-02-22T16:56:16.031Z,10.80
2019-02-22T16:58:44.919Z,14.37
2019-02-22T17:01:21.767Z,11.63
2019-02-22T17:03:50.578Z,14.33
2019-02-22T17:06:19.397Z,13.00
2019-02-22T17:08:50.653Z,14.23
2019-02-22T17:11:19.619Z,13.07
2019-02-22T17:13:48.290Z,13.47
2019-02-22T17:16:22.997Z,12.43
2019-02-22T17:21:36.911Z,12.57
2019-02-22T17:24:27.122Z,13.20
2019-02-22T17:27:07.150Z,12.67
2019-02-22T17:29:38.846Z,12.73
2019-02-22T17:32:12.286Z,13.63
2019-02-22T17:34:49.821Z,13.13
2019-02-22T17:37:21.482Z,12.70
2019-02-22T17:39:53.024Z,15.63
2019-02-22T17:42:40.982Z,12.43
2019-02-22T17:45:11.178Z,13.93
2019-02-22T17:47:40.116Z,12.70
2019-02-22T17:50:12.287Z,12.63
2019-02-22T17:52:43.658Z,15.23
2019-02-22T17:55:16.542Z,13.27
2019-02-22T17:57:45.247Z,14.57
2019-02-22T18:00:20.344Z,16.20
2019-02-22T18:03:03.009Z,16.53
2019-02-22T18:05:27.796Z,17.53
2019-02-22T18:08:04.120Z,17.63
2019-02-22T18:10:35.508Z,16.87
2019-02-22T18:13:08.294Z,19.37
2019-02-22T18:15:37.384Z,20.00
2019-02-22T18:18:09.208Z,19.83
2019-02-22T18:20:37.915Z,20.80
2019-02-22T18:23:06.750Z,19.83
2019-02-22T18:25:40.193Z,18.60
2019-02-22T18:28:08.934Z,21.57
2019-02-22T18:30:37.797Z,19.37
2019-02-22T18:33:06.998Z,19.90
2019-02-22T18:35:37.592Z,22.93
2019-02-22T18:38:08.005Z,20.43
2019-02-22T18:40:37.935Z,20.93
2019-02-22T18:43:09.264Z,21.87
2019-02-22T18:45:41.726Z,19.07
2019-02-22T18:48:12.175Z,21.70
2019-02-22T18:50:42.880Z,21.47
2019-02-22T18:53:22.336Z,25.90
2019-02-22T18:55:53.242Z,23.23
2019-02-22T18:58:22.178Z,23.30
2019-02-22T19:00:52.448Z,23.37
2019-02-22T19:03:23.995Z,24.30
2019-02-22T19:05:52.855Z,24.67
2019-02-22T19:08:31.775Z,23.13
2019-02-22T19:10:53.195Z,22.00
2019-02-22T19:13:21.843Z,24.17
2019-02-22T19:15:53.510Z,25.47
2019-02-22T19:18:26.141Z,27.07
2019-02-22T19:20:55.192Z,22.50
2019-02-22T19:23:26.497Z,29.47
2019-02-22T19:25:55.235Z,26.50
2019-02-22T19:28:24.759Z,25.70
2019-02-22T19:31:00.700Z,28.67
2019-02-22T19:33:33.032Z,27.73
2019-02-22T19:36:07.451Z,26.30
2019-02-22T19:38:39.775Z,27.93
2019-02-22T19:41:08.456Z,29.37
2019-02-22T19:43:45.751Z,31.47
2019-02-22T19:46:16.192Z,30.03
2019-02-22T19:48:57.133Z,32.13
2019-02-22T19:51:31.612Z,29.27
2019-02-22T19:54:04.687Z,33.10
2019-02-22T19:56:33.261Z,30.43
2019-02-22T19:59:06.593Z,33.87
2019-02-22T20:01:37.223Z,31.50
2019-02-22T20:04:06.150Z,29.57
2019-02-22T20:06:41.266Z,33.70
2019-02-22T20:09:14.603Z,33.67
2019-02-22T20:11:48.153Z,33.30
2019-02-22T20:14:25.642Z,31.50
2019-02-22T20:16:54.392Z,33.83
2019-02-22T20:19:25.861Z,37.27
2019-02-22T20:21:59.000Z,34.30
2019-02-22T20:24:28.606Z,34.17
2019-02-22T20:27:05.845Z,34.37
2019-02-22T20:29:34.709Z,34.40
2019-02-22T20:32:06.143Z,36.17
2019-02-22T20:34:34.973Z,35.63
2019-02-22T20:37:03.868Z,33.10
2019-02-22T20:39:36.583Z,35.13
2019-02-22T20:42:09.904Z,31.93
2019-02-22T20:44:40.688Z,33.97
2019-02-22T20:47:26.787Z,34.47
2019-02-22T20:49:57.361Z,29.97
2019-02-22T20:52:30.135Z,31.67
2019-02-22T20:54:59.628Z,36.83
2019-02-22T20:57:31.650Z,35.30
2019-02-22T21:00:00.555Z,32.23
2019-02-22T21:02:33.719Z,30.60
2019-02-22T21:05:02.344Z,30.87
2019-02-22T21:07:34.333Z,28.03
2019-02-22T21:10:06.694Z,29.73
2019-02-22T21:12:38.144Z,28.10
2019-02-22T21:15:10.827Z,28.30
2019-02-22T21:17:39.397Z,30.80
2019-02-22T21:20:15.783Z,31.03
2019-02-22T21:22:44.402Z,25.00
2019-02-22T21:25:13.316Z,25.93
2019-02-22T21:27:47.732Z,24.90
2019-02-22T21:30:20.528Z,25.53
2019-02-22T21:32:50.806Z,26.43
2019-02-22T21:35:28.123Z,22.80
2019-02-22T21:38:00.003Z,24.40
2019-02-22T21:40:33.472Z,24.13
2019-02-22T21:43:15.207Z,23.87
2019-02-22T21:45:43.866Z,22.50
2019-02-22T21:48:13.236Z,21.83
2019-02-22T21:50:45.258Z,20.50
2019-02-22T21:53:13.871Z,20.93
2019-02-22T21:55:42.687Z,19.87
2019-02-22T21:58:16.818Z,18.33
2019-02-22T22:00:46.885Z,22.03
2019-02-22T22:03:19.918Z,15.90
2019-02-22T22:05:50.819Z,17.57
2019-02-22T22:08:22.766Z,14.27
2019-02-22T22:10:52.259Z,15.80
2019-02-22T22:13:21.610Z,16.77
2019-02-22T22:15:50.594Z,16.47
2019-02-22T22:18:22.134Z,14.87
2019-02-22T22:20:51.840Z,15.77
2019-02-22T22:23:23.759Z,16.27
2019-02-22T22:25:52.436Z,16.93
2019-02-22T22:28:21.094Z,15.60
2019-02-22T22:30:49.742Z,16.77
2019-02-22T22:33:20.828Z,16.87
2019-02-22T22:35:49.770Z,17.40
2019-02-22T22:38:18.491Z,17.47
2019-02-22T22:40:47.176Z,17.93
2019-02-22T22:43:17.815Z,16.33
2019-02-22T22:45:49.264Z,15.97
2019-02-22T22:48:18.339Z,15.53
2019-02-22T22:51:12.155Z,14.63
2019-02-22T22:53:42.933Z,15.93
2019-02-22T22:56:11.646Z,16.00
2019-02-22T22:58:40.280Z,17.27
2019-02-22T23:01:11.856Z,16.87
2019-02-22T23:03:41.348Z,16.57
2019-02-22T23:06:12.537Z,16.67
2019-02-22T23:08:44.649Z,17.70
2019-02-22T23:11:13.631Z,16.03
2019-02-22T23:13:47.125Z,19.30
2019-02-22T23:16:15.506Z,16.00
2019-02-22T23:18:44.208Z,19.20
2019-02-22T23:21:12.921Z,18.57
2019-02-22T23:23:41.597Z,21.83
2019-02-22T23:26:10.441Z,22.63
2019-02-22T23:28:40.617Z,18.70
2019-02-22T23:31:09.733Z,19.00
2019-02-22T23:33:38.643Z,20.33
2019-02-22T23:36:07.349Z,21.73
2019-02-22T23:38:36.200Z,20.87
2019-02-22T23:41:06.303Z,19.77
2019-02-22T23:43:35.146Z,24.70
2019-02-22T23:46:05.005Z,22.10
2019-02-22T23:48:33.684Z,19.93
2019-02-22T23:51:05.063Z,22.40
2019-02-22T23:53:33.846Z,23.27
2019-02-22T23:56:02.567Z,21.77
2019-02-22T23:58:31.203Z,21.57
